sensor_id;sensor_type;location;lat;lon;timestamp;P1;durP1;ratioP1;P2;durP2;ratioP2
76640;SDS011;65538;50.798;6.064;2024-01-15T00:01:26;25.13;;;8.23;;
76640;SDS011;65538;50.798;6.064;2024-01-15T00:03:51;31.27;;;11.17;;
76640;SDS011;65538;50.798;6.064;2024-01-15T00:06:16;46.40;;;15.50;;
76640;SDS011;65538;50.798;6.064;2024-01-15T00:08:41;40.60;;;16.10;;
76640;SDS011;65538;50.798;6.064;2024-01-15T00:11:06;35.63;;;12.13;;
76640;SDS011;65538;50.798;6.064;2024-01-15T00:13:31;32.43;;;11.33;;
76640;SDS011;65538;50.798;6.064;2024-01-15T00:15:57;38.47;;;13.10;;
76640;SDS011;65538;50.798;6.064;2024-01-15T00:18:22;39.10;;;15.40;;
76640;SDS011;65538;50.798;6.064;2024-01-15T00:20:47;33.55;;;11.60;;
76640;SDS011;65538;50.798;6.064;2024-01-15T00:23:13;39.13;;;13.20;;
76640;SDS011;65538;50.798;6.064;2024-01-15T00:25:38;40.53;;;12.47;;
76640;SDS011;65538;50.798;6.064;2024-01-15T00:28:03;37.90;;;12.43;;
76640;SDS011;65538;50.798;6.064;2024-01-15T00:30:28;31.13;;;11.30;;
76640;SDS011;65538;50.798;6.064;2024-01-15T00:32:53;45.23;;;14.73;;
76640;SDS011;65538;50.798;6.064;2024-01-15T00:35:19;43.17;;;16.90;;
76640;SDS011;65538;50.798;6.064;2024-01-15T00:37:44;36.40;;;12.80;;
76640;SDS011;65538;50.798;6.064;2024-01-15T00:40:09;33.63;;;10.43;;
76640;SDS011;65538;50.798;6.064;2024-01-15T00:42:35;44.15;;;16.67;;
76640;SDS011;65538;50.798;6.064;2024-01-15T00:45:00;32.97;;;11.23;;
76640;SDS011;65538;50.798;6.064;2024-01-15T00:47:25;39.30;;;12.10;;
76640;SDS011;65538;50.798;6.064;2024-01-15T00:49:50;35.80;;;12.50;;
76640;SDS011;65538;50.798;6.064;2024-01-15T00:52:15;32.53;;;8.27;;
76640;SDS011;65538;50.798;6.064;2024-01-15T00:54:41;39.47;;;11.73;;
76640;SDS011;65538;50.798;6.064;2024-01-15T00:57:06;40.27;;;12.77;;
76640;SDS011;65538;50.798;6.064;2024-01-15T00:59:31;37.10;;;12.67;;
76640;SDS011;65538;50.798;6.064;2024-01-15T01:01:56;41.03;;;15.57;;
76640;SDS011;65538;50.798;6.064;2024-01-15T01:04:21;21.47;;;6.93;;
76640;SDS011;65538;50.798;6.064;2024-01-15T01:06:46;33.67;;;10.90;;
76640;SDS011;65538;50.798;6.064;2024-01-15T01:09:12;28.43;;;10.77;;
76640;SDS011;65538;50.798;6.064;2024-01-15T01:11:37;29.07;;;8.53;;
76640;SDS011;65538;50.798;6.064;2024-01-15T01:14:02;40.17;;;14.03;;
76640;SDS011;65538;50.798;6.064;2024-01-15T01:16:28;32.83;;;9.45;;
76640;SDS011;65538;50.798;6.064;2024-01-15T01:18:53;46.70;;;14.43;;
76640;SDS011;65538;50.798;6.064;2024-01-15T01:21:18;41.77;;;12.43;;
76640;SDS011;65538;50.798;6.064;2024-01-15T01:23:43;47.43;;;15.30;;
76640;SDS011;65538;50.798;6.064;2024-01-15T01:26:08;35.27;;;11.97;;
76640;SDS011;65538;50.798;6.064;2024-01-15T01:28:34;32.47;;;10.93;;
76640;SDS011;65538;50.798;6.064;2024-01-15T01:30:59;30.80;;;10.40;;
76640;SDS011;65538;50.798;6.064;2024-01-15T01:33:24;35.47;;;12.02;;
76640;SDS011;65538;50.798;6.064;2024-01-15T01:35:49;46.20;;;18.23;;
76640;SDS011;65538;50.798;6.064;2024-01-15T01:38:15;41.90;;;16.30;;
76640;SDS011;65538;50.798;6.064;2024-01-15T01:40:40;34.33;;;13.32;;
76640;SDS011;65538;50.798;6.064;2024-01-15T01:43:05;37.53;;;13.20;;
76640;SDS011;65538;50.798;6.064;2024-01-15T01:45:31;42.92;;;17.10;;
76640;SDS011;65538;50.798;6.064;2024-01-15T01:47:56;43.30;;;15.80;;
76640;SDS011;65538;50.798;6.064;2024-01-15T01:50:21;44.97;;;16.00;;
76640;SDS011;65538;50.798;6.064;2024-01-15T01:52:47;44.73;;;17.87;;
76640;SDS011;65538;50.798;6.064;2024-01-15T01:55:12;41.30;;;15.55;;
76640;SDS011;65538;50.798;6.064;2024-01-15T01:57:37;36.83;;;12.03;;
76640;SDS011;65538;50.798;6.064;2024-01-15T02:00:03;43.43;;;15.30;;
76640;SDS011;65538;50.798;6.064;2024-01-15T02:02:29;54.03;;;19.85;;
76640;SDS011;65538;50.798;6.064;2024-01-15T02:04:54;43.90;;;13.57;;
76640;SDS011;65538;50.798;6.064;2024-01-15T02:07:19;46.00;;;16.30;;
76640;SDS011;65538;50.798;6.064;2024-01-15T02:09:45;41.20;;;15.25;;
76640;SDS011;65538;50.798;6.064;2024-01-15T02:12:10;42.23;;;14.97;;
76640;SDS011;65538;50.798;6.064;2024-01-15T02:14:35;46.42;;;17.77;;
76640;SDS011;65538;50.798;6.064;2024-01-15T02:17:01;48.03;;;17.33;;
76640;SDS011;65538;50.798;6.064;2024-01-15T02:19:26;43.40;;;13.73;;
76640;SDS011;65538;50.798;6.064;2024-01-15T02:21:51;69.57;;;26.37;;
76640;SDS011;65538;50.798;6.064;2024-01-15T02:24:16;44.30;;;15.73;;
76640;SDS011;65538;50.798;6.064;2024-01-15T02:26:42;57.77;;;21.23;;
76640;SDS011;65538;50.798;6.064;2024-01-15T02:29:07;47.30;;;17.03;;
76640;SDS011;65538;50.798;6.064;2024-01-15T02:31:33;48.97;;;17.05;;
76640;SDS011;65538;50.798;6.064;2024-01-15T02:33:58;59.83;;;22.47;;
76640;SDS011;65538;50.798;6.064;2024-01-15T02:36:24;21.77;;;10.13;;
76640;SDS011;65538;50.798;6.064;2024-01-15T02:38:49;46.85;;;16.38;;
76640;SDS011;65538;50.798;6.064;2024-01-15T02:41:15;43.07;;;18.37;;
76640;SDS011;65538;50.798;6.064;2024-01-15T02:43:40;46.03;;;13.20;;
76640;SDS011;65538;50.798;6.064;2024-01-15T02:46:06;32.40;;;10.75;;
76640;SDS011;65538;50.798;6.064;2024-01-15T02:48:31;46.23;;;16.43;;
76640;SDS011;65538;50.798;6.064;2024-01-15T02:50:56;44.17;;;15.03;;
76640;SDS011;65538;50.798;6.064;2024-01-15T02:53:21;45.10;;;17.67;;
76640;SDS011;65538;50.798;6.064;2024-01-15T02:55:46;43.17;;;18.40;;
76640;SDS011;65538;50.798;6.064;2024-01-15T02:58:12;33.20;;;13.37;;
76640;SDS011;65538;50.798;6.064;2024-01-15T03:00:37;39.63;;;15.07;;
76640;SDS011;65538;50.798;6.064;2024-01-15T03:03:02;31.43;;;12.83;;
76640;SDS011;65538;50.798;6.064;2024-01-15T03:05:27;46.43;;;16.73;;
76640;SDS011;65538;50.798;6.064;2024-01-15T03:07:52;30.10;;;11.13;;
76640;SDS011;65538;50.798;6.064;2024-01-15T03:10:17;46.73;;;15.83;;
76640;SDS011;65538;50.798;6.064;2024-01-15T03:12:43;42.50;;;18.57;;
76640;SDS011;65538;50.798;6.064;2024-01-15T03:15:08;31.37;;;12.57;;
76640;SDS011;65538;50.798;6.064;2024-01-15T03:17:33;38.07;;;14.37;;
76640;SDS011;65538;50.798;6.064;2024-01-15T03:19:58;40.07;;;15.63;;
76640;SDS011;65538;50.798;6.064;2024-01-15T03:22:23;57.93;;;19.60;;
76640;SDS011;65538;50.798;6.064;2024-01-15T03:24:49;40.03;;;14.27;;
76640;SDS011;65538;50.798;6.064;2024-01-15T03:27:14;50.27;;;20.20;;
76640;SDS011;65538;50.798;6.064;2024-01-15T03:29:39;46.93;;;15.63;;
76640;SDS011;65538;50.798;6.064;2024-01-15T03:32:05;46.95;;;16.63;;
76640;SDS011;65538;50.798;6.064;2024-01-15T03:34:30;48.23;;;16.83;;
76640;SDS011;65538;50.798;6.064;2024-01-15T03:36:55;42.77;;;16.73;;
76640;SDS011;65538;50.798;6.064;2024-01-15T03:39:20;54.63;;;19.47;;
76640;SDS011;65538;50.798;6.064;2024-01-15T03:41:45;47.80;;;16.03;;
76640;SDS011;65538;50.798;6.064;2024-01-15T03:44:10;52.27;;;21.73;;
76640;SDS011;65538;50.798;6.064;2024-01-15T03:46:36;41.47;;;15.53;;
76640;SDS011;65538;50.798;6.064;2024-01-15T03:49:01;42.23;;;17.00;;
76640;SDS011;65538;50.798;6.064;2024-01-15T03:51:26;29.50;;;11.07;;
76640;SDS011;65538;50.798;6.064;2024-01-15T03:53:51;42.00;;;14.77;;
76640;SDS011;65538;50.798;6.064;2024-01-15T03:56:16;39.60;;;17.00;;
76640;SDS011;65538;50.798;6.064;2024-01-15T03:58:42;36.60;;;13.63;;
76640;SDS011;65538;50.798;6.064;2024-01-15T04:01:07;37.13;;;12.37;;
76640;SDS011;65538;50.798;6.064;2024-01-15T04:03:32;50.72;;;23.42;;
76640;SDS011;65538;50.798;6.064;2024-01-15T04:05:58;40.30;;;14.40;;
76640;SDS011;65538;50.798;6.064;2024-01-15T04:08:23;43.10;;;16.27;;
76640;SDS011;65538;50.798;6.064;2024-01-15T04:10:48;38.63;;;13.33;;
76640;SDS011;65538;50.798;6.064;2024-01-15T04:13:13;44.80;;;15.23;;
76640;SDS011;65538;50.798;6.064;2024-01-15T04:15:38;44.43;;;15.43;;
76640;SDS011;65538;50.798;6.064;2024-01-15T04:18:04;41.97;;;15.83;;
76640;SDS011;65538;50.798;6.064;2024-01-15T04:20:29;52.83;;;20.07;;
76640;SDS011;65538;50.798;6.064;2024-01-15T04:22:54;44.43;;;15.40;;
76640;SDS011;65538;50.798;6.064;2024-01-15T04:25:19;48.67;;;18.30;;
76640;SDS011;65538;50.798;6.064;2024-01-15T04:27:44;54.47;;;19.47;;
76640;SDS011;65538;50.798;6.064;2024-01-15T04:30:10;49.03;;;16.20;;
76640;SDS011;65538;50.798;6.064;2024-01-15T04:32:35;55.47;;;19.00;;
76640;SDS011;65538;50.798;6.064;2024-01-15T04:35:01;35.10;;;11.52;;
76640;SDS011;65538;50.798;6.064;2024-01-15T04:37:26;31.87;;;11.60;;
76640;SDS011;65538;50.798;6.064;2024-01-15T04:39:51;46.93;;;16.47;;
76640;SDS011;65538;50.798;6.064;2024-01-15T04:42:19;55.45;;;20.17;;
76640;SDS011;65538;50.798;6.064;2024-01-15T04:44:45;35.60;;;12.30;;
76640;SDS011;65538;50.798;6.064;2024-01-15T04:47:10;37.45;;;12.98;;
76640;SDS011;65538;50.798;6.064;2024-01-15T04:49:35;41.87;;;16.40;;
76640;SDS011;65538;50.798;6.064;2024-01-15T04:52:01;41.27;;;14.60;;
76640;SDS011;65538;50.798;6.064;2024-01-15T04:54:26;44.47;;;17.00;;
76640;SDS011;65538;50.798;6.064;2024-01-15T04:56:51;37.73;;;13.37;;
76640;SDS011;65538;50.798;6.064;2024-01-15T04:59:16;42.03;;;15.07;;
76640;SDS011;65538;50.798;6.064;2024-01-15T05:01:42;37.90;;;14.57;;
76640;SDS011;65538;50.798;6.064;2024-01-15T05:04:07;38.53;;;14.13;;
76640;SDS011;65538;50.798;6.064;2024-01-15T05:06:32;37.47;;;13.50;;
76640;SDS011;65538;50.798;6.064;2024-01-15T05:08:57;35.73;;;13.10;;
76640;SDS011;65538;50.798;6.064;2024-01-15T05:11:22;36.53;;;14.77;;
76640;SDS011;65538;50.798;6.064;2024-01-15T05:13:48;35.55;;;13.88;;
76640;SDS011;65538;50.798;6.064;2024-01-15T05:16:13;37.27;;;14.50;;
76640;SDS011;65538;50.798;6.064;2024-01-15T05:18:38;34.87;;;14.30;;
76640;SDS011;65538;50.798;6.064;2024-01-15T05:21:03;34.85;;;11.75;;
76640;SDS011;65538;50.798;6.064;2024-01-15T05:23:31;34.17;;;13.73;;
76640;SDS011;65538;50.798;6.064;2024-01-15T05:25:56;30.50;;;11.98;;
76640;SDS011;65538;50.798;6.064;2024-01-15T05:28:22;30.75;;;13.60;;
76640;SDS011;65538;50.798;6.064;2024-01-15T05:30:47;37.57;;;14.53;;
76640;SDS011;65538;50.798;6.064;2024-01-15T05:33:12;20.23;;;7.73;;
76640;SDS011;65538;50.798;6.064;2024-01-15T05:35:37;32.30;;;10.93;;
76640;SDS011;65538;50.798;6.064;2024-01-15T05:38:02;33.37;;;11.77;;
76640;SDS011;65538;50.798;6.064;2024-01-15T05:40:28;28.67;;;13.27;;
76640;SDS011;65538;50.798;6.064;2024-01-15T05:42:53;25.63;;;10.40;;
76640;SDS011;65538;50.798;6.064;2024-01-15T05:45:18;18.33;;;8.30;;
76640;SDS011;65538;50.798;6.064;2024-01-15T05:47:43;23.27;;;6.93;;
76640;SDS011;65538;50.798;6.064;2024-01-15T05:50:09;25.20;;;11.70;;
76640;SDS011;65538;50.798;6.064;2024-01-15T05:52:34;25.15;;;10.50;;
76640;SDS011;65538;50.798;6.064;2024-01-15T05:54:59;28.90;;;11.90;;
76640;SDS011;65538;50.798;6.064;2024-01-15T05:57:24;28.73;;;9.57;;
76640;SDS011;65538;50.798;6.064;2024-01-15T05:59:50;24.47;;;10.67;;
76640;SDS011;65538;50.798;6.064;2024-01-15T06:02:15;25.57;;;12.20;;
76640;SDS011;65538;50.798;6.064;2024-01-15T06:04:40;14.43;;;5.17;;
76640;SDS011;65538;50.798;6.064;2024-01-15T06:07:05;29.50;;;12.50;;
76640;SDS011;65538;50.798;6.064;2024-01-15T06:09:30;26.97;;;11.03;;
76640;SDS011;65538;50.798;6.064;2024-01-15T06:11:56;36.20;;;17.15;;
76640;SDS011;65538;50.798;6.064;2024-01-15T06:14:21;32.20;;;12.60;;
76640;SDS011;65538;50.798;6.064;2024-01-15T06:16:46;36.40;;;14.33;;
76640;SDS011;65538;50.798;6.064;2024-01-15T06:19:12;30.03;;;11.67;;
76640;SDS011;65538;50.798;6.064;2024-01-15T06:21:37;29.53;;;9.67;;
76640;SDS011;65538;50.798;6.064;2024-01-15T06:24:02;35.67;;;18.20;;
76640;SDS011;65538;50.798;6.064;2024-01-15T06:26:27;40.20;;;13.87;;
76640;SDS011;65538;50.798;6.064;2024-01-15T06:28:53;40.03;;;17.77;;
76640;SDS011;65538;50.798;6.064;2024-01-15T06:31:18;35.73;;;14.43;;
76640;SDS011;65538;50.798;6.064;2024-01-15T06:33:43;33.57;;;12.07;;
76640;SDS011;65538;50.798;6.064;2024-01-15T06:36:10;41.63;;;13.35;;
76640;SDS011;65538;50.798;6.064;2024-01-15T06:38:35;37.88;;;15.23;;
76640;SDS011;65538;50.798;6.064;2024-01-15T06:41:01;35.57;;;11.90;;
76640;SDS011;65538;50.798;6.064;2024-01-15T06:43:26;41.80;;;19.67;;
76640;SDS011;65538;50.798;6.064;2024-01-15T06:45:51;38.30;;;15.20;;
76640;SDS011;65538;50.798;6.064;2024-01-15T06:48:16;42.60;;;17.77;;
76640;SDS011;65538;50.798;6.064;2024-01-15T06:50:42;38.37;;;13.60;;
76640;SDS011;65538;50.798;6.064;2024-01-15T06:53:07;51.00;;;17.50;;
76640;SDS011;65538;50.798;6.064;2024-01-15T06:55:32;37.90;;;17.90;;
76640;SDS011;65538;50.798;6.064;2024-01-15T06:57:58;34.73;;;14.37;;
76640;SDS011;65538;50.798;6.064;2024-01-15T07:00:23;33.15;;;14.38;;
76640;SDS011;65538;50.798;6.064;2024-01-15T07:02:48;33.53;;;13.60;;
76640;SDS011;65538;50.798;6.064;2024-01-15T07:05:13;40.90;;;15.83;;
76640;SDS011;65538;50.798;6.064;2024-01-15T07:07:39;36.13;;;16.33;;
76640;SDS011;65538;50.798;6.064;2024-01-15T07:10:04;38.20;;;14.37;;
76640;SDS011;65538;50.798;6.064;2024-01-15T07:12:30;38.17;;;14.98;;
76640;SDS011;65538;50.798;6.064;2024-01-15T07:14:55;38.47;;;15.30;;
76640;SDS011;65538;50.798;6.064;2024-01-15T07:17:21;19.45;;;9.23;;
76640;SDS011;65538;50.798;6.064;2024-01-15T07:19:46;35.90;;;13.23;;
76640;SDS011;65538;50.798;6.064;2024-01-15T07:22:11;36.53;;;13.17;;
76640;SDS011;65538;50.798;6.064;2024-01-15T07:24:36;28.33;;;11.23;;
76640;SDS011;65538;50.798;6.064;2024-01-15T07:27:02;24.70;;;10.67;;
76640;SDS011;65538;50.798;6.064;2024-01-15T07:29:29;26.70;;;12.45;;
76640;SDS011;65538;50.798;6.064;2024-01-15T07:31:54;29.37;;;15.10;;
76640;SDS011;65538;50.798;6.064;2024-01-15T07:34:20;30.13;;;15.03;;
76640;SDS011;65538;50.798;6.064;2024-01-15T07:36:45;28.13;;;12.17;;
76640;SDS011;65538;50.798;6.064;2024-01-15T07:39:10;28.00;;;13.27;;
76640;SDS011;65538;50.798;6.064;2024-01-15T07:41:36;22.92;;;9.20;;
76640;SDS011;65538;50.798;6.064;2024-01-15T07:44:01;33.73;;;12.37;;
76640;SDS011;65538;50.798;6.064;2024-01-15T07:46:26;27.50;;;9.77;;
76640;SDS011;65538;50.798;6.064;2024-01-15T07:48:52;30.13;;;11.60;;
76640;SDS011;65538;50.798;6.064;2024-01-15T07:51:21;17.95;;;8.10;;
76640;SDS011;65538;50.798;6.064;2024-01-15T07:53:46;17.98;;;6.50;;
76640;SDS011;65538;50.798;6.064;2024-01-15T07:56:11;24.47;;;9.93;;
76640;SDS011;65538;50.798;6.064;2024-01-15T07:58:37;24.63;;;9.47;;
76640;SDS011;65538;50.798;6.064;2024-01-15T08:01:02;17.17;;;7.70;;
76640;SDS011;65538;50.798;6.064;2024-01-15T08:03:27;16.90;;;6.27;;
76640;SDS011;65538;50.798;6.064;2024-01-15T08:05:52;20.93;;;7.20;;
76640;SDS011;65538;50.798;6.064;2024-01-15T08:08:19;23.58;;;8.60;;
76640;SDS011;65538;50.798;6.064;2024-01-15T08:10:46;19.75;;;7.43;;
76640;SDS011;65538;50.798;6.064;2024-01-15T08:13:11;18.50;;;8.47;;
76640;SDS011;65538;50.798;6.064;2024-01-15T08:15:36;17.50;;;7.97;;
76640;SDS011;65538;50.798;6.064;2024-01-15T08:18:01;15.90;;;7.30;;
76640;SDS011;65538;50.798;6.064;2024-01-15T08:20:27;23.23;;;10.07;;
76640;SDS011;65538;50.798;6.064;2024-01-15T08:22:53;21.23;;;7.77;;
76640;SDS011;65538;50.798;6.064;2024-01-15T08:25:18;20.30;;;8.97;;
76640;SDS011;65538;50.798;6.064;2024-01-15T08:27:43;24.20;;;8.33;;
76640;SDS011;65538;50.798;6.064;2024-01-15T08:30:08;17.63;;;8.63;;
76640;SDS011;65538;50.798;6.064;2024-01-15T08:32:34;24.20;;;10.02;;
76640;SDS011;65538;50.798;6.064;2024-01-15T08:35:02;13.75;;;7.38;;
76640;SDS011;65538;50.798;6.064;2024-01-15T08:37:29;20.50;;;8.52;;
76640;SDS011;65538;50.798;6.064;2024-01-15T08:39:54;15.00;;;6.63;;
76640;SDS011;65538;50.798;6.064;2024-01-15T08:42:20;19.85;;;7.55;;
76640;SDS011;65538;50.798;6.064;2024-01-15T08:44:45;14.43;;;8.53;;
76640;SDS011;65538;50.798;6.064;2024-01-15T08:47:10;19.47;;;7.67;;
76640;SDS011;65538;50.798;6.064;2024-01-15T08:49:35;13.27;;;5.23;;
76640;SDS011;65538;50.798;6.064;2024-01-15T08:52:01;19.63;;;7.68;;
76640;SDS011;65538;50.798;6.064;2024-01-15T08:54:27;21.77;;;9.50;;
76640;SDS011;65538;50.798;6.064;2024-01-15T08:56:52;20.77;;;7.53;;
76640;SDS011;65538;50.798;6.064;2024-01-15T08:59:17;22.83;;;10.17;;
76640;SDS011;65538;50.798;6.064;2024-01-15T09:01:49;21.35;;;8.05;;
76640;SDS011;65538;50.798;6.064;2024-01-15T09:04:14;18.33;;;8.20;;
76640;SDS011;65538;50.798;6.064;2024-01-15T09:06:39;18.37;;;8.70;;
76640;SDS011;65538;50.798;6.064;2024-01-15T09:09:04;13.90;;;6.10;;
76640;SDS011;65538;50.798;6.064;2024-01-15T09:11:31;32.95;;;8.40;;
76640;SDS011;65538;50.798;6.064;2024-01-15T09:13:56;24.58;;;10.25;;
76640;SDS011;65538;50.798;6.064;2024-01-15T09:16:22;20.27;;;6.93;;
76640;SDS011;65538;50.798;6.064;2024-01-15T09:18:47;17.23;;;7.03;;
76640;SDS011;65538;50.798;6.064;2024-01-15T09:21:13;15.43;;;6.37;;
76640;SDS011;65538;50.798;6.064;2024-01-15T09:23:38;23.97;;;10.33;;
76640;SDS011;65538;50.798;6.064;2024-01-15T09:26:03;16.17;;;6.57;;
76640;SDS011;65538;50.798;6.064;2024-01-15T09:28:28;21.85;;;8.82;;
76640;SDS011;65538;50.798;6.064;2024-01-15T09:30:54;23.30;;;7.70;;
76640;SDS011;65538;50.798;6.064;2024-01-15T09:33:19;20.37;;;7.77;;
76640;SDS011;65538;50.798;6.064;2024-01-15T09:35:44;18.60;;;7.67;;
76640;SDS011;65538;50.798;6.064;2024-01-15T09:38:09;13.20;;;7.07;;
76640;SDS011;65538;50.798;6.064;2024-01-15T09:40:34;17.47;;;8.30;;
76640;SDS011;65538;50.798;6.064;2024-01-15T09:43:03;13.63;;;6.05;;
76640;SDS011;65538;50.798;6.064;2024-01-15T09:45:28;17.00;;;7.63;;
76640;SDS011;65538;50.798;6.064;2024-01-15T09:47:54;8.53;;;3.80;;
76640;SDS011;65538;50.798;6.064;2024-01-15T09:50:19;18.23;;;8.32;;
76640;SDS011;65538;50.798;6.064;2024-01-15T09:52:45;21.98;;;7.78;;
76640;SDS011;65538;50.798;6.064;2024-01-15T09:55:10;17.65;;;8.07;;
76640;SDS011;65538;50.798;6.064;2024-01-15T09:57:36;18.70;;;7.60;;
76640;SDS011;65538;50.798;6.064;2024-01-15T10:00:02;22.33;;;9.00;;
76640;SDS011;65538;50.798;6.064;2024-01-15T10:02:29;22.17;;;8.10;;
76640;SDS011;65538;50.798;6.064;2024-01-15T10:04:55;22.38;;;9.15;;
76640;SDS011;65538;50.798;6.064;2024-01-15T10:07:20;22.17;;;12.50;;
76640;SDS011;65538;50.798;6.064;2024-01-15T10:09:47;22.05;;;10.90;;
76640;SDS011;65538;50.798;6.064;2024-01-15T10:12:12;23.90;;;9.00;;
76640;SDS011;65538;50.798;6.064;2024-01-15T10:14:37;21.10;;;7.73;;
76640;SDS011;65538;50.798;6.064;2024-01-15T10:17:12;18.23;;;7.10;;
76640;SDS011;65538;50.798;6.064;2024-01-15T10:19:39;12.80;;;5.53;;
76640;SDS011;65538;50.798;6.064;2024-01-15T10:22:06;21.80;;;9.98;;
76640;SDS011;65538;50.798;6.064;2024-01-15T10:24:31;16.02;;;7.05;;
76640;SDS011;65538;50.798;6.064;2024-01-15T10:27:04;19.40;;;7.03;;
76640;SDS011;65538;50.798;6.064;2024-01-15T10:29:29;14.45;;;6.10;;
76640;SDS011;65538;50.798;6.064;2024-01-15T10:31:55;18.70;;;8.33;;
76640;SDS011;65538;50.798;6.064;2024-01-15T10:34:20;25.40;;;8.67;;
76640;SDS011;65538;50.798;6.064;2024-01-15T10:36:45;19.63;;;10.53;;
76640;SDS011;65538;50.798;6.064;2024-01-15T10:39:13;13.98;;;7.00;;
76640;SDS011;65538;50.798;6.064;2024-01-15T10:41:38;16.80;;;7.18;;
76640;SDS011;65538;50.798;6.064;2024-01-15T10:44:04;8.80;;;4.55;;
76640;SDS011;65538;50.798;6.064;2024-01-15T10:46:29;18.23;;;7.73;;
76640;SDS011;65538;50.798;6.064;2024-01-15T10:48:56;18.27;;;7.88;;
76640;SDS011;65538;50.798;6.064;2024-01-15T10:51:21;18.58;;;7.25;;
76640;SDS011;65538;50.798;6.064;2024-01-15T10:53:46;13.93;;;5.10;;
76640;SDS011;65538;50.798;6.064;2024-01-15T10:56:12;15.95;;;4.15;;
76640;SDS011;65538;50.798;6.064;2024-01-15T10:58:39;11.77;;;5.97;;
76640;SDS011;65538;50.798;6.064;2024-01-15T11:01:04;11.82;;;3.55;;
76640;SDS011;65538;50.798;6.064;2024-01-15T11:03:30;11.43;;;5.80;;
76640;SDS011;65538;50.798;6.064;2024-01-15T11:05:55;11.53;;;4.10;;
76640;SDS011;65538;50.798;6.064;2024-01-15T11:08:20;19.08;;;5.97;;
76640;SDS011;65538;50.798;6.064;2024-01-15T11:10:47;14.23;;;4.88;;
76640;SDS011;65538;50.798;6.064;2024-01-15T11:16:04;12.68;;;4.65;;
76640;SDS011;65538;50.798;6.064;2024-01-15T11:18:40;10.32;;;2.70;;
76640;SDS011;65538;50.798;6.064;2024-01-15T11:26:30;13.77;;;4.15;;
76640;SDS011;65538;50.798;6.064;2024-01-15T11:28:56;11.10;;;3.45;;
76640;SDS011;65538;50.798;6.064;2024-01-15T11:33:53;10.02;;;3.40;;
76640;SDS011;65538;50.798;6.064;2024-01-15T11:36:18;11.17;;;5.03;;
76640;SDS011;65538;50.798;6.064;2024-01-15T11:38:43;12.93;;;3.87;;
76640;SDS011;65538;50.798;6.064;2024-01-15T11:41:15;13.10;;;4.50;;
76640;SDS011;65538;50.798;6.064;2024-01-15T11:43:41;13.25;;;4.60;;
76640;SDS011;65538;50.798;6.064;2024-01-15T11:46:07;9.88;;;3.70;;
76640;SDS011;65538;50.798;6.064;2024-01-15T11:48:41;7.80;;;3.65;;
76640;SDS011;65538;50.798;6.064;2024-01-15T11:51:07;10.23;;;2.80;;
76640;SDS011;65538;50.798;6.064;2024-01-15T11:53:34;9.95;;;3.08;;
76640;SDS011;65538;50.798;6.064;2024-01-15T11:56:02;8.85;;;3.17;;
76640;SDS011;65538;50.798;6.064;2024-01-15T11:58:27;9.50;;;3.28;;
76640;SDS011;65538;50.798;6.064;2024-01-15T12:00:52;14.53;;;3.40;;
76640;SDS011;65538;50.798;6.064;2024-01-15T12:03:20;15.40;;;3.03;;
76640;SDS011;65538;50.798;6.064;2024-01-15T12:05:45;10.63;;;2.80;;
76640;SDS011;65538;50.798;6.064;2024-01-15T12:08:10;8.97;;;3.03;;
76640;SDS011;65538;50.798;6.064;2024-01-15T12:10:36;7.10;;;2.60;;
76640;SDS011;65538;50.798;6.064;2024-01-15T12:15:27;10.87;;;3.10;;
76640;SDS011;65538;50.798;6.064;2024-01-15T12:17:57;8.55;;;2.35;;
76640;SDS011;65538;50.798;6.064;2024-01-15T12:20:23;8.77;;;2.90;;
76640;SDS011;65538;50.798;6.064;2024-01-15T12:22:49;14.52;;;3.13;;
76640;SDS011;65538;50.798;6.064;2024-01-15T12:25:14;6.05;;;2.55;;
76640;SDS011;65538;50.798;6.064;2024-01-15T12:27:39;8.73;;;3.03;;
76640;SDS011;65538;50.798;6.064;2024-01-15T12:30:04;6.57;;;1.77;;
76640;SDS011;65538;50.798;6.064;2024-01-15T12:32:30;15.65;;;3.88;;
76640;SDS011;65538;50.798;6.064;2024-01-15T12:34:55;7.10;;;2.57;;
76640;SDS011;65538;50.798;6.064;2024-01-15T12:37:20;12.40;;;3.10;;
76640;SDS011;65538;50.798;6.064;2024-01-15T12:39:46;13.85;;;3.88;;
76640;SDS011;65538;50.798;6.064;2024-01-15T12:42:11;9.07;;;2.38;;
76640;SDS011;65538;50.798;6.064;2024-01-15T12:44:37;12.18;;;3.50;;
76640;SDS011;65538;50.798;6.064;2024-01-15T12:47:05;10.93;;;3.88;;
76640;SDS011;65538;50.798;6.064;2024-01-15T12:49:30;12.57;;;4.70;;
76640;SDS011;65538;50.798;6.064;2024-01-15T12:51:59;13.02;;;4.55;;
76640;SDS011;65538;50.798;6.064;2024-01-15T12:54:25;16.92;;;4.90;;
76640;SDS011;65538;50.798;6.064;2024-01-15T12:56:51;9.50;;;2.92;;
76640;SDS011;65538;50.798;6.064;2024-01-15T12:59:16;14.63;;;5.45;;
76640;SDS011;65538;50.798;6.064;2024-01-15T13:01:42;19.75;;;5.65;;
76640;SDS011;65538;50.798;6.064;2024-01-15T13:04:07;13.03;;;5.87;;
76640;SDS011;65538;50.798;6.064;2024-01-15T13:06:34;13.18;;;6.40;;
76640;SDS011;65538;50.798;6.064;2024-01-15T13:08:59;13.90;;;6.43;;
76640;SDS011;65538;50.798;6.064;2024-01-15T13:11:24;15.77;;;7.30;;
76640;SDS011;65538;50.798;6.064;2024-01-15T13:13:49;14.73;;;8.60;;
76640;SDS011;65538;50.798;6.064;2024-01-15T13:16:14;12.27;;;6.43;;
76640;SDS011;65538;50.798;6.064;2024-01-15T13:18:40;9.00;;;4.80;;
76640;SDS011;65538;50.798;6.064;2024-01-15T13:21:06;10.73;;;5.43;;
76640;SDS011;65538;50.798;6.064;2024-01-15T13:23:31;14.33;;;6.70;;
76640;SDS011;65538;50.798;6.064;2024-01-15T13:25:56;9.33;;;5.57;;
76640;SDS011;65538;50.798;6.064;2024-01-15T13:28:21;10.83;;;5.17;;
76640;SDS011;65538;50.798;6.064;2024-01-15T13:30:47;5.70;;;3.07;;
76640;SDS011;65538;50.798;6.064;2024-01-15T13:33:12;11.27;;;4.30;;
76640;SDS011;65538;50.798;6.064;2024-01-15T13:35:38;9.82;;;4.60;;
76640;SDS011;65538;50.798;6.064;2024-01-15T13:38:03;6.33;;;4.10;;
76640;SDS011;65538;50.798;6.064;2024-01-15T13:40:28;10.03;;;4.30;;
76640;SDS011;65538;50.798;6.064;2024-01-15T13:42:54;8.53;;;3.33;;
76640;SDS011;65538;50.798;6.064;2024-01-15T13:45:19;8.30;;;3.67;;
76640;SDS011;65538;50.798;6.064;2024-01-15T13:47:45;10.80;;;4.28;;
76640;SDS011;65538;50.798;6.064;2024-01-15T13:50:10;8.40;;;3.90;;
76640;SDS011;65538;50.798;6.064;2024-01-15T13:52:36;8.00;;;3.70;;
76640;SDS011;65538;50.798;6.064;2024-01-15T13:55:01;6.57;;;3.17;;
76640;SDS011;65538;50.798;6.064;2024-01-15T13:57:26;9.43;;;3.83;;
76640;SDS011;65538;50.798;6.064;2024-01-15T13:59:53;8.60;;;3.80;;
76640;SDS011;65538;50.798;6.064;2024-01-15T14:02:18;9.68;;;4.65;;
76640;SDS011;65538;50.798;6.064;2024-01-15T14:04:45;7.20;;;3.05;;
76640;SDS011;65538;50.798;6.064;2024-01-15T14:07:10;8.30;;;3.63;;
76640;SDS011;65538;50.798;6.064;2024-01-15T14:09:35;9.90;;;4.73;;
76640;SDS011;65538;50.798;6.064;2024-01-15T14:12:02;8.00;;;4.20;;
76640;SDS011;65538;50.798;6.064;2024-01-15T14:14:27;6.77;;;3.57;;
76640;SDS011;65538;50.798;6.064;2024-01-15T14:16:53;6.37;;;2.17;;
76640;SDS011;65538;50.798;6.064;2024-01-15T14:19:18;10.87;;;3.70;;
76640;SDS011;65538;50.798;6.064;2024-01-15T14:21:43;7.78;;;3.58;;
76640;SDS011;65538;50.798;6.064;2024-01-15T14:24:09;6.33;;;2.73;;
76640;SDS011;65538;50.798;6.064;2024-01-15T14:26:34;5.20;;;2.80;;
76640;SDS011;65538;50.798;6.064;2024-01-15T14:28:59;5.07;;;2.58;;
76640;SDS011;65538;50.798;6.064;2024-01-15T14:31:24;4.93;;;2.60;;